Time;durP1;ratioP1;P1;durP2;ratioP2;P2;SDS_P1;SDS_P2;PMS_P1;PMS_P2;Temp;Humidity;BMP_temperature;BMP_pressure;BME280_temperature;BME280_humidity;BME280_pressure;Samples;Min_cycle;Max_cycle;Signal;HPM_P1;HPM_P2
2020/12/07 00:00:28;;;;;;;4.30;4.00;;;8.60;62.50;;;;;;5022051;28;20210;-64
2020/12/07 00:02:55;;;;;;;4.03;3.73;;;8.60;62.60;;;;;;5026611;28;20206;-63
2020/12/07 00:05:21;;;;;;;4.33;4.03;;;8.60;62.60;;;;;;5024845;28;20218;-63
2020/12/07 00:07:48;;;;;;;3.87;3.57;;;8.60;62.60;;;;;;5024909;28;20238;-63
2020/12/07 00:10:14;;;;;;;3.97;3.70;;;8.60;62.50;;;;;;5025104;28;20210;-63
2020/12/07 00:12:42;;;;;;;3.93;3.63;;;8.60;62.60;;;;;;5024357;28;20202;-63
2020/12/07 00:15:08;;;;;;;4.20;3.90;;;8.50;62.50;;;;;;5028240;28;20226;-62
2020/12/07 00:17:36;;;;;;;3.90;3.60;;;8.60;62.60;;;;;;5029252;28;20242;-62
2020/12/07 00:20:04;;;;;;;4.20;3.90;;;8.60;62.70;;;;;;5025314;28;20202;-62
2020/12/07 00:22:32;;;;;;;3.73;3.53;;;8.60;62.70;;;;;;5026384;28;20217;-63
2020/12/07 00:25:00;;;;;;;3.93;3.63;;;8.60;62.70;;;;;;5024965;28;20217;-64
2020/12/07 00:27:29;;;;;;;4.00;3.70;;;8.60;62.70;;;;;;5034030;28;20245;-63
2020/12/07 00:29:56;;;;;;;3.83;3.53;;;8.60;62.70;;;;;;5031712;28;20217;-64
2020/12/07 00:32:24;;;;;;;3.80;3.60;;;8.60;62.60;;;;;;5033814;28;20225;-63
2020/12/07 00:34:52;;;;;;;3.63;3.43;;;8.60;62.60;;;;;;5034328;28;20564;-64
2020/12/07 00:37:20;;;;;;;3.97;3.67;;;8.50;62.60;;;;;;5033070;28;20225;-62
2020/12/07 00:39:47;;;;;;;3.57;3.37;;;8.60;62.70;;;;;;5033717;28;20226;-64
2020/12/07 00:42:14;;;;;;;4.23;3.93;;;8.60;62.60;;;;;;5032992;28;20256;-63
2020/12/07 00:44:41;;;;;;;3.90;3.60;;;8.60;62.50;;;;;;5033777;28;20206;-63
2020/12/07 00:47:12;;;;;;;3.73;3.43;;;8.60;63.20;;;;;;5035395;28;20260;-64
2020/12/07 00:49:40;;;;;;;3.63;3.33;;;8.60;62.20;;;;;;5034441;28;20203;-63
2020/12/07 00:52:08;;;;;;;3.80;3.57;;;8.60;62.10;;;;;;5032483;28;20201;-64
2020/12/07 00:54:35;;;;;;;3.60;3.40;;;8.60;62.20;;;;;;5032760;28;20214;-64
2020/12/07 00:57:03;;;;;;;3.53;3.33;;;8.60;62.20;;;;;;5033198;28;20642;-64
2020/12/07 00:59:30;;;;;;;3.33;3.13;;;8.60;62.30;;;;;;5033096;28;20317;-65
2020/12/07 01:01:57;;;;;;;3.37;3.17;;;8.60;62.30;;;;;;5033305;28;20293;-63
2020/12/07 01:04:25;;;;;;;3.80;3.50;;;8.60;62.40;;;;;;5033067;28;20680;-65
2020/12/07 01:06:51;;;;;;;3.33;3.13;;;8.60;62.20;;;;;;5023661;28;20342;-64
2020/12/07 01:09:20;;;;;;;3.17;2.97;;;8.60;62.20;;;;;;5032286;28;20997;-64
2020/12/07 01:11:53;;;;;;;3.20;3.00;;;8.60;62.20;;;;;;5034566;28;20218;-63
2020/12/07 01:14:21;;;;;;;3.13;2.93;;;8.70;62.20;;;;;;5033525;28;20225;-64
2020/12/07 01:16:48;;;;;;;3.10;2.90;;;8.70;62.20;;;;;;5034038;28;20663;-64
2020/12/07 01:19:15;;;;;;;3.13;2.93;;;8.70;62.10;;;;;;5034772;28;20226;-64
2020/12/07 01:21:42;;;;;;;2.90;2.70;;;8.70;62.00;;;;;;5034457;28;20208;-65
2020/12/07 01:24:08;;;;;;;3.17;2.97;;;8.70;62.00;;;;;;5033528;28;20228;-64
2020/12/07 01:26:39;;;;;;;3.20;3.00;;;8.70;61.90;;;;;;5034278;28;20229;-64
2020/12/07 01:29:06;;;;;;;2.77;2.57;;;8.70;61.70;;;;;;5032998;28;20277;-65
2020/12/07 01:31:33;;;;;;;2.70;2.60;;;8.70;61.70;;;;;;5032999;28;20206;-64
2020/12/07 01:34:01;;;;;;;2.80;2.57;;;8.70;61.70;;;;;;5034396;28;20214;-64
2020/12/07 01:36:27;;;;;;;2.70;2.60;;;8.70;61.70;;;;;;5034012;28;20226;-64
2020/12/07 01:38:54;;;;;;;2.57;2.47;;;8.70;61.60;;;;;;5027401;28;20311;-64
2020/12/07 01:41:21;;;;;;;2.70;2.50;;;8.70;61.60;;;;;;5031560;28;20214;-65
2020/12/07 01:43:48;;;;;;;2.63;2.53;;;8.70;61.70;;;;;;5032107;28;20217;-64
2020/12/07 01:46:22;;;;;;;2.53;2.43;;;8.70;61.70;;;;;;5029747;28;20603;-64
2020/12/07 01:48:49;;;;;;;2.43;2.33;;;8.70;61.60;;;;;;5031716;28;20293;-64
2020/12/07 01:51:16;;;;;;;2.43;2.33;;;8.70;61.70;;;;;;5030054;28;20727;-64
2020/12/07 01:53:43;;;;;;;2.40;2.30;;;8.80;61.60;;;;;;5029622;28;20210;-65
2020/12/07 01:56:15;;;;;;;2.27;2.17;;;8.80;61.60;;;;;;5031094;28;20249;-65
2020/12/07 01:58:41;;;;;;;2.60;2.50;;;8.80;61.50;;;;;;5031173;28;20226;-65
2020/12/07 02:01:09;;;;;;;2.47;2.37;;;8.80;61.40;;;;;;5029522;28;20737;-64
2020/12/07 02:03:35;;;;;;;2.30;2.20;;;8.80;61.40;;;;;;5031215;28;20214;-65
2020/12/07 02:06:02;;;;;;;2.33;2.23;;;8.80;61.50;;;;;;5030951;28;20232;-65
2020/12/07 02:08:29;;;;;;;2.13;2.03;;;8.80;61.50;;;;;;5031964;28;20202;-66
2020/12/07 02:10:55;;;;;;;2.30;2.20;;;8.80;61.40;;;;;;5030262;28;20222;-64
2020/12/07 02:13:22;;;;;;;2.20;2.10;;;8.80;61.40;;;;;;5029453;28;20206;-63
2020/12/07 02:15:49;;;;;;;2.00;1.90;;;8.80;61.40;;;;;;5031539;28;20234;-64
2020/12/07 02:18:16;;;;;;;2.30;2.20;;;8.80;61.30;;;;;;5029171;28;20321;-64
2020/12/07 02:20:48;;;;;;;2.07;1.97;;;8.80;61.30;;;;;;5028756;28;20274;-63
2020/12/07 02:23:15;;;;;;;2.07;1.97;;;8.80;61.20;;;;;;5029597;28;20213;-64
2020/12/07 02:25:42;;;;;;;2.10;2.00;;;8.80;61.20;;;;;;5030066;28;20233;-64
2020/12/07 02:28:09;;;;;;;1.90;1.80;;;8.70;61.10;;;;;;5028533;28;20209;-64
2020/12/07 02:30:35;;;;;;;1.93;1.83;;;8.70;61.10;;;;;;5026703;28;20206;-64
2020/12/07 02:33:02;;;;;;;1.83;1.73;;;8.70;61.10;;;;;;5027766;28;20681;-65
2020/12/07 02:35:28;;;;;;;1.80;1.70;;;8.70;61.10;;;;;;5029794;28;20210;-64
2020/12/07 02:37:55;;;;;;;1.90;1.80;;;8.70;61.20;;;;;;5030125;28;20544;-65
2020/12/07 02:40:22;;;;;;;2.00;1.90;;;8.70;61.20;;;;;;5029032;28;20215;-64
2020/12/07 02:42:48;;;;;;;1.60;1.50;;;8.70;61.10;;;;;;5027169;28;20260;-64
2020/12/07 02:45:17;;;;;;;2.00;1.90;;;8.70;61.20;;;;;;5030210;28;20324;-63
2020/12/07 02:47:45;;;;;;;1.83;1.73;;;8.80;61.30;;;;;;5030111;28;20221;-65
2020/12/07 02:50:13;;;;;;;1.70;1.60;;;8.70;61.40;;;;;;5028341;28;20210;-65
2020/12/07 02:52:40;;;;;;;2.10;2.00;;;8.70;61.40;;;;;;5029609;28;20214;-64
2020/12/07 02:55:08;;;;;;;1.90;1.80;;;8.70;61.30;;;;;;5029479;28;20214;-64
2020/12/07 02:57:35;;;;;;;1.77;1.67;;;8.70;61.30;;;;;;5029976;28;20241;-64
2020/12/07 03:00:04;;;;;;;1.70;1.60;;;8.70;61.20;;;;;;5029302;28;20222;-64
2020/12/07 03:02:31;;;;;;;1.63;1.53;;;8.70;61.20;;;;;;5029746;28;20260;-63
2020/12/07 03:04:57;;;;;;;1.83;1.73;;;8.70;61.20;;;;;;5030025;28;20214;-64
2020/12/07 03:07:24;;;;;;;1.60;1.50;;;8.70;61.20;;;;;;5028203;28;20222;-63
2020/12/07 03:09:50;;;;;;;1.80;1.70;;;8.60;61.30;;;;;;5027594;28;20264;-64
2020/12/07 03:12:17;;;;;;;1.70;1.60;;;8.60;61.30;;;;;;5029574;28;20256;-64
2020/12/07 03:14:44;;;;;;;1.67;1.57;;;8.60;61.90;;;;;;5028717;28;20206;-65
2020/12/07 03:17:10;;;;;;;1.70;1.60;;;8.50;61.20;;;;;;5027946;28;20608;-65
2020/12/07 03:19:36;;;;;;;1.67;1.57;;;8.50;61.50;;;;;;5029310;28;20569;-64
2020/12/07 03:22:03;;;;;;;1.53;1.47;;;8.50;61.80;;;;;;5027548;28;20206;-62
2020/12/07 03:24:29;;;;;;;2.00;1.80;;;8.40;62.00;;;;;;5030086;28;20228;-63
2020/12/07 03:26:55;;;;;;;1.60;1.50;;;8.40;62.20;;;;;;5028535;28;20233;-63
2020/12/07 03:29:23;;;;;;;1.90;1.80;;;8.30;62.20;;;;;;5029049;28;20198;-64
2020/12/07 03:31:49;;;;;;;1.80;1.70;;;8.30;63.10;;;;;;5027613;28;20206;-63
2020/12/07 03:34:16;;;;;;;1.70;1.60;;;8.30;62.40;;;;;;5028779;28;20214;-63
2020/12/07 03:36:42;;;;;;;1.67;1.57;;;8.20;62.50;;;;;;5027866;28;20230;-63
2020/12/07 03:39:09;;;;;;;1.97;1.87;;;8.20;62.50;;;;;;5029108;28;20230;-63
2020/12/07 03:41:36;;;;;;;1.80;1.70;;;8.20;62.50;;;;;;5028741;28;20213;-63
2020/12/07 03:44:03;;;;;;;1.83;1.73;;;8.10;62.40;;;;;;5028590;28;20213;-63
2020/12/07 03:46:30;;;;;;;1.90;1.80;;;8.10;62.40;;;;;;5029213;28;20233;-64
2020/12/07 03:48:56;;;;;;;1.80;1.70;;;8.00;62.30;;;;;;5029000;28;20210;-64
2020/12/07 03:51:23;;;;;;;1.80;1.70;;;8.00;62.30;;;;;;5026740;28;20206;-64
2020/12/07 03:53:50;;;;;;;2.30;2.10;;;7.90;62.20;;;;;;5028819;28;20211;-63
2020/12/07 03:56:16;;;;;;;1.73;1.63;;;7.90;62.30;;;;;;5028044;28;20217;-64
2020/12/07 03:58:42;;;;;;;2.13;1.90;;;7.80;62.40;;;;;;5027956;28;21071;-61
2020/12/07 04:01:10;;;;;;;1.80;1.70;;;7.70;62.50;;;;;;5025829;28;20212;-63
2020/12/07 04:03:39;;;;;;;1.80;1.70;;;7.70;62.50;;;;;;5025942;28;20329;-65
2020/12/07 04:06:10;;;;;;;1.80;1.70;;;7.70;62.60;;;;;;5029127;28;20245;-63
2020/12/07 04:08:36;;;;;;;2.07;1.97;;;7.60;62.80;;;;;;5029552;28;20226;-64
2020/12/07 04:11:03;;;;;;;1.70;1.60;;;7.60;62.90;;;;;;5026148;28;20202;-63
2020/12/07 04:13:30;;;;;;;1.80;1.70;;;7.60;62.80;;;;;;5028354;28;20229;-64
2020/12/07 04:15:57;;;;;;;1.80;1.70;;;7.50;62.60;;;;;;5027415;28;20230;-65
2020/12/07 04:18:23;;;;;;;1.60;1.50;;;7.40;62.30;;;;;;5027889;28;20715;-64
2020/12/07 04:20:51;;;;;;;1.73;1.63;;;7.40;62.20;;;;;;5026887;28;20218;-64
2020/12/07 04:23:17;;;;;;;1.80;1.70;;;7.30;62.20;;;;;;5027049;28;20211;-64
2020/12/07 04:25:44;;;;;;;1.60;1.50;;;7.20;62.10;;;;;;5025725;28;20230;-63
2020/12/07 04:28:10;;;;;;;1.50;1.40;;;7.20;62.10;;;;;;5027272;28;20211;-64
2020/12/07 04:30:40;;;;;;;1.60;1.50;;;7.00;62.10;;;;;;5024823;28;20205;-64
2020/12/07 04:33:07;;;;;;;1.50;1.40;;;7.00;62.20;;;;;;5023886;28;20373;-64
2020/12/07 04:35:33;;;;;;;1.43;1.33;;;6.90;62.30;;;;;;5026458;28;20556;-63
2020/12/07 04:38:00;;;;;;;1.60;1.50;;;6.80;62.40;;;;;;5026975;28;20594;-64
2020/12/07 04:40:28;;;;;;;1.53;1.43;;;6.80;62.60;;;;;;5025408;28;20278;-62
2020/12/07 04:42:56;;;;;;;1.60;1.50;;;6.70;63.00;;;;;;5028161;28;20691;-64
2020/12/07 04:45:24;;;;;;;1.20;1.20;;;6.70;63.60;;;;;;5027264;28;20217;-64
2020/12/07 04:47:51;;;;;;;1.37;1.27;;;6.60;63.90;;;;;;5028295;28;20229;-61
2020/12/07 04:50:19;;;;;;;1.17;1.17;;;6.70;64.00;;;;;;5024927;28;20217;-64
2020/12/07 04:52:49;;;;;;;1.40;1.30;;;6.70;63.90;;;;;;5027726;28;20221;-65
2020/12/07 04:55:18;;;;;;;1.13;1.13;;;6.70;64.00;;;;;;5028955;28;20241;-63
2020/12/07 04:57:44;;;;;;;1.10;1.10;;;6.70;64.10;;;;;;5027486;28;20199;-61
2020/12/07 05:00:12;;;;;;;1.00;1.00;;;6.70;64.40;;;;;;5026743;28;20755;-64
2020/12/07 05:02:39;;;;;;;1.10;1.10;;;6.70;65.30;;;;;;5027506;28;20241;-62
2020/12/07 05:05:07;;;;;;;1.30;1.20;;;6.80;64.80;;;;;;5025902;28;20207;-63
2020/12/07 05:07:35;;;;;;;0.97;0.97;;;6.80;65.00;;;;;;5022609;28;20230;-64
2020/12/07 05:10:11;;;;;;;1.03;1.03;;;6.90;65.00;;;;;;5027333;28;20203;-65
2020/12/07 05:12:43;;;;;;;0.90;0.90;;;7.00;64.90;;;;;;5028265;28;20275;-65
2020/12/07 05:15:11;;;;;;;0.90;0.90;;;7.00;64.60;;;;;;5031733;28;20602;-64
2020/12/07 05:17:39;;;;;;;0.87;0.87;;;7.10;64.00;;;;;;5029689;28;20226;-64
2020/12/07 05:20:06;;;;;;;1.83;1.00;;;7.10;63.70;;;;;;5028537;28;20237;-64
2020/12/07 05:22:34;;;;;;;1.10;1.10;;;7.10;63.20;;;;;;5029893;28;20214;-64
2020/12/07 05:25:04;;;;;;;1.00;1.00;;;7.00;63.00;;;;;;5031709;28;20198;-64
2020/12/07 05:27:33;;;;;;;1.10;1.10;;;7.00;63.00;;;;;;5032040;28;20245;-65
2020/12/07 05:30:11;;;;;;;1.27;1.17;;;6.90;63.20;;;;;;5031093;28;20735;-63
2020/12/07 05:32:39;;;;;;;1.20;1.10;;;6.90;63.50;;;;;;5029530;28;20981;-65
2020/12/07 05:35:07;;;;;;;1.30;1.20;;;6.90;63.70;;;;;;5030223;28;20211;-64
2020/12/07 05:37:35;;;;;;;1.40;1.30;;;6.80;63.80;;;;;;5030650;28;20227;-64
2020/12/07 05:40:05;;;;;;;1.23;1.20;;;6.80;63.70;;;;;;5028956;28;20223;-64
2020/12/07 05:42:33;;;;;;;1.40;1.30;;;6.80;63.60;;;;;;5029941;28;20205;-64
2020/12/07 05:45:02;;;;;;;1.20;1.10;;;6.80;63.40;;;;;;5033224;28;20210;-63
2020/12/07 05:47:31;;;;;;;1.10;1.10;;;6.80;63.30;;;;;;5032104;28;20726;-64
2020/12/07 05:49:59;;;;;;;1.20;1.10;;;6.70;63.20;;;;;;5032160;28;20578;-64
2020/12/07 05:52:35;;;;;;;1.00;1.00;;;6.60;63.10;;;;;;5031211;28;20207;-62
2020/12/07 05:55:03;;;;;;;0.90;0.90;;;6.60;63.20;;;;;;5031681;28;20679;-63
2020/12/07 05:57:32;;;;;;;0.93;0.93;;;6.60;63.30;;;;;;5031533;28;20226;-63
2020/12/07 06:00:06;;;;;;;1.80;1.30;;;6.50;63.40;;;;;;5031478;28;20269;-63
2020/12/07 06:02:36;;;;;;;1.20;1.10;;;6.50;63.60;;;;;;5030636;28;20225;-65
2020/12/07 06:05:03;;;;;;;0.93;0.93;;;6.40;63.60;;;;;;5030696;28;20198;-62
2020/12/07 06:07:36;;;;;;;1.10;1.10;;;6.40;63.80;;;;;;5029496;28;20245;-62
2020/12/07 06:10:04;;;;;;;1.30;1.20;;;6.40;64.00;;;;;;5028291;28;20586;-63
2020/12/07 06:12:39;;;;;;;1.17;1.07;;;6.40;64.00;;;;;;5029543;28;20198;-62
2020/12/07 06:15:06;;;;;;;1.17;1.10;;;6.40;64.10;;;;;;5029441;28;20214;-63
2020/12/07 06:17:33;;;;;;;1.10;1.10;;;6.40;64.00;;;;;;5031382;28;20602;-63
2020/12/07 06:20:00;;;;;;;0.97;0.97;;;6.40;63.90;;;;;;5029865;28;20226;-65
2020/12/07 06:22:28;;;;;;;1.07;1.07;;;6.40;63.80;;;;;;5028979;28;20221;-64
2020/12/07 06:24:59;;;;;;;1.20;1.10;;;6.30;63.70;;;;;;5029432;28;20699;-64
2020/12/07 06:27:26;;;;;;;1.47;1.10;;;6.30;63.70;;;;;;5029755;28;20324;-63
2020/12/07 06:29:58;;;;;;;2.40;1.00;;;6.30;63.70;;;;;;5029577;28;20206;-64
2020/12/07 06:32:44;;;;;;;1.30;1.20;;;6.20;63.80;;;;;;5027599;28;20210;-65
2020/12/07 06:35:12;;;;;;;1.20;1.10;;;6.20;64.00;;;;;;5029701;28;20305;-63
2020/12/07 06:37:46;;;;;;;1.40;1.30;;;6.20;63.80;;;;;;5030064;28;20230;-64
2020/12/07 06:40:15;;;;;;;1.47;1.37;;;6.20;64.00;;;;;;5028860;28;20222;-63
2020/12/07 06:42:44;;;;;;;1.87;1.20;;;6.20;64.00;;;;;;5027546;28;20232;-63
2020/12/07 06:45:22;;;;;;;1.10;1.10;;;6.10;64.00;;;;;;5030780;28;20206;-63
2020/12/07 06:47:51;;;;;;;1.20;1.10;;;6.10;64.30;;;;;;5026983;28;20237;-61
2020/12/07 06:50:21;;;;;;;1.33;1.23;;;6.10;64.30;;;;;;5029886;28;20202;-63
2020/12/07 06:52:48;;;;;;;1.30;1.20;;;6.10;64.50;;;;;;5028602;28;20221;-63
2020/12/07 06:55:17;;;;;;;1.27;1.17;;;6.10;64.60;;;;;;5028893;28;20618;-63
2020/12/07 06:57:46;;;;;;;1.00;1.00;;;6.20;64.80;;;;;;5029841;28;20230;-64
2020/12/07 07:00:16;;;;;;;1.90;1.10;;;6.20;64.70;;;;;;5026971;28;20335;-64
2020/12/07 07:02:45;;;;;;;2.53;1.10;;;6.20;64.60;;;;;;5029609;28;20213;-64
2020/12/07 07:05:14;;;;;;;1.23;1.13;;;6.20;64.60;;;;;;5027332;28;20229;-63
2020/12/07 07:07:42;;;;;;;1.10;1.00;;;6.20;64.50;;;;;;5027193;28;20613;-64
2020/12/07 07:10:11;;;;;;;0.97;0.97;;;6.20;64.50;;;;;;5027401;28;20206;-63
2020/12/07 07:12:39;;;;;;;1.40;1.30;;;6.30;64.60;;;;;;5028448;28;20203;-64
2020/12/07 07:15:07;;;;;;;1.43;1.33;;;6.30;64.60;;;;;;5029198;28;20202;-64
2020/12/07 07:17:37;;;;;;;1.50;1.37;;;6.30;64.50;;;;;;5027800;28;20737;-63
2020/12/07 07:20:06;;;;;;;2.07;1.20;;;6.30;64.50;;;;;;5026997;28;20695;-64
2020/12/07 07:22:35;;;;;;;1.07;1.00;;;6.30;64.30;;;;;;5028969;28;20206;-62
2020/12/07 07:25:20;;;;;;;1.60;1.20;;;6.30;64.20;;;;;;5028890;28;20644;-64
2020/12/07 07:27:59;;;;;;;1.30;1.20;;;6.30;64.20;;;;;;5025682;28;20203;-63
2020/12/07 07:30:26;;;;;;;1.30;1.20;;;6.30;64.20;;;;;;5027299;28;20674;-63
2020/12/07 07:32:55;;;;;;;1.57;1.40;;;6.30;64.10;;;;;;5025229;28;20210;-65
2020/12/07 07:35:25;;;;;;;1.70;1.60;;;6.40;64.30;;;;;;5028884;28;20210;-64
2020/12/07 07:37:53;;;;;;;1.40;1.30;;;6.30;64.10;;;;;;5027740;28;20236;-63
2020/12/07 07:40:21;;;;;;;1.30;1.20;;;6.30;64.10;;;;;;5027571;28;20244;-65
2020/12/07 07:42:51;;;;;;;1.23;1.20;;;6.40;64.20;;;;;;5027948;28;20213;-64
2020/12/07 07:45:20;;;;;;;1.40;1.30;;;6.30;64.10;;;;;;5028823;28;20308;-64
2020/12/07 07:47:54;;;;;;;1.57;1.43;;;6.40;64.10;;;;;;5025552;28;20237;-64
2020/12/07 08:16:19;;;;;;;1.60;1.33;;;6.60;64.10;;;;;;5028331;28;20338;-63
2020/12/07 08:18:46;;;;;;;1.43;1.33;;;6.60;64.30;;;;;;5028686;28;20222;-64
2020/12/07 08:21:24;;;;;;;1.40;1.30;;;6.60;64.20;;;;;;5025910;28;20250;-64
2020/12/07 08:23:59;;;;;;;1.57;1.47;;;6.60;64.10;;;;;;5026487;28;20683;-63
2020/12/07 08:26:26;;;;;;;1.70;1.60;;;6.70;64.20;;;;;;5028058;28;20221;-63
2020/12/07 08:28:54;;;;;;;1.60;1.50;;;6.70;64.20;;;;;;5028157;28;20202;-65
2020/12/07 08:31:22;;;;;;;1.67;1.57;;;6.80;64.20;;;;;;5026034;28;20722;-63
2020/12/07 08:34:01;;;;;;;1.50;1.40;;;6.80;64.20;;;;;;5025777;28;20205;-63
2020/12/07 08:36:30;;;;;;;1.50;1.40;;;6.80;64.30;;;;;;5026379;28;20241;-64
2020/12/07 08:38:58;;;;;;;1.53;1.43;;;6.90;64.20;;;;;;5026047;28;20230;-63
2020/12/07 08:41:28;;;;;;;1.67;1.57;;;6.90;64.10;;;;;;5023876;28;20930;-63
2020/12/07 08:43:56;;;;;;;1.60;1.50;;;6.90;64.20;;;;;;5024868;28;20225;-64
2020/12/07 08:46:25;;;;;;;2.03;1.80;;;7.00;64.10;;;;;;5023324;28;20559;-65
2020/12/07 08:48:52;;;;;;;1.70;1.60;;;7.00;64.00;;;;;;5030337;28;20202;-63
2020/12/07 08:51:21;;;;;;;1.73;1.63;;;7.10;64.00;;;;;;5030447;28;20272;-64
2020/12/07 08:53:48;;;;;;;1.80;1.70;;;7.10;63.90;;;;;;5030969;28;20210;-64
2020/12/07 08:56:15;;;;;;;1.90;1.80;;;7.10;63.90;;;;;;5028842;28;20234;-64
2020/12/07 08:58:42;;;;;;;1.70;1.60;;;7.20;63.90;;;;;;5029209;28;20214;-64
2020/12/07 09:01:12;;;;;;;1.60;1.50;;;7.30;63.90;;;;;;5028684;28;20209;-63
2020/12/07 09:03:41;;;;;;;1.47;1.37;;;7.30;63.90;;;;;;5029178;28;20214;-67
2020/12/07 09:06:09;;;;;;;1.50;1.40;;;7.30;63.80;;;;;;5028754;28;20233;-63
2020/12/07 09:08:36;;;;;;;1.50;1.40;;;7.40;63.80;;;;;;5030653;28;20254;-64
2020/12/07 09:11:04;;;;;;;1.37;1.27;;;7.50;63.60;;;;;;5026465;28;20689;-64
2020/12/07 09:13:30;;;;;;;1.57;1.47;;;7.50;63.50;;;;;;5026260;28;20218;-63
2020/12/07 09:15:57;;;;;;;1.43;1.33;;;7.60;63.90;;;;;;5026017;28;20231;-63
2020/12/07 09:18:24;;;;;;;1.63;1.53;;;7.80;65.40;;;;;;5026506;28;20560;-62
2020/12/07 09:20:50;;;;;;;1.77;1.67;;;8.20;67.40;;;;;;5028305;28;20241;-64
2020/12/07 09:23:17;;;;;;;1.90;1.30;;;8.80;68.60;;;;;;5027043;28;20214;-64
2020/12/07 09:25:44;;;;;;;1.47;1.37;;;9.60;69.00;;;;;;5025090;28;20241;-64
2020/12/07 09:28:10;;;;;;;1.10;1.10;;;10.50;68.60;;;;;;5021691;28;20745;-64
2020/12/07 09:30:37;;;;;;;1.33;1.23;;;11.50;67.70;;;;;;5021950;28;20214;-65
2020/12/07 09:33:05;;;;;;;0.80;0.80;;;12.50;66.40;;;;;;5024602;28;20646;-64
2020/12/07 09:35:31;;;;;;;1.00;1.00;;;13.50;64.60;;;;;;5031756;28;20251;-64
2020/12/07 09:37:58;;;;;;;1.47;0.70;;;14.50;63.30;;;;;;5029961;28;20214;-63
2020/12/07 09:40:25;;;;;;;0.80;0.80;;;15.40;61.70;;;;;;5027992;28;20230;-64
2020/12/07 09:42:51;;;;;;;0.50;0.50;;;16.30;60.90;;;;;;5022168;28;20338;-65
2020/12/07 09:45:17;;;;;;;0.50;0.50;;;17.20;60.00;;;;;;5024194;28;20202;-65
2020/12/07 09:47:44;;;;;;;0.37;0.37;;;18.10;59.40;;;;;;5025338;28;20242;-65
2020/12/07 09:50:11;;;;;;;0.70;0.50;;;18.90;58.40;;;;;;5016759;28;20780;-64
2020/12/07 09:52:38;;;;;;;0.87;0.77;;;19.70;57.20;;;;;;5020116;28;20268;-65
2020/12/07 09:55:06;;;;;;;0.50;0.50;;;20.30;56.10;;;;;;5019182;28;20601;-64
2020/12/07 09:57:32;;;;;;;0.40;0.40;;;20.80;54.90;;;;;;5017649;28;20256;-64
2020/12/07 09:59:59;;;;;;;0.43;0.43;;;21.30;54.00;;;;;;5018390;28;20238;-62
2020/12/07 10:02:25;;;;;;;0.60;0.60;;;21.70;53.40;;;;;;5020058;28;20734;-63
2020/12/07 10:04:52;;;;;;;1.00;0.83;;;22.00;52.30;;;;;;5021528;28;20237;-64
2020/12/07 10:07:19;;;;;;;0.60;0.60;;;22.20;51.40;;;;;;5027313;28;20233;-64
2020/12/07 10:09:46;;;;;;;0.50;0.50;;;22.30;51.00;;;;;;5026641;28;20203;-63
2020/12/07 10:12:12;;;;;;;0.57;0.57;;;22.30;50.70;;;;;;5022835;28;20223;-63
2020/12/07 10:14:39;;;;;;;0.37;0.37;;;22.30;50.50;;;;;;5030170;28;20210;-62
2020/12/07 10:17:06;;;;;;;0.40;0.40;;;22.40;50.50;;;;;;5028734;28;20241;-63
2020/12/07 10:19:32;;;;;;;0.60;0.60;;;22.50;50.20;;;;;;5029987;28;21132;-63
2020/12/07 10:21:58;;;;;;;0.50;0.50;;;22.70;50.20;;;;;;5022440;28;20206;-63
2020/12/07 10:24:26;;;;;;;0.60;0.60;;;22.80;49.70;;;;;;5024227;28;20229;-61
2020/12/07 10:26:54;;;;;;;0.70;0.70;;;22.90;48.70;;;;;;5025626;28;20230;-63
2020/12/07 10:29:20;;;;;;;0.70;0.70;;;22.80;48.40;;;;;;5025463;28;20202;-64
2020/12/07 10:31:47;;;;;;;0.67;0.67;;;22.70;48.60;;;;;;5015031;28;20225;-65
2020/12/07 10:34:13;;;;;;;0.60;0.50;;;22.70;48.60;;;;;;5019992;28;20209;-63
2020/12/07 10:36:40;;;;;;;0.83;0.60;;;22.60;48.50;;;;;;5027262;28;20264;-64
2020/12/07 10:39:07;;;;;;;1.23;0.50;;;22.70;48.80;;;;;;5025486;28;20242;-63
2020/12/07 10:41:34;;;;;;;0.43;0.43;;;22.80;49.10;;;;;;5027291;28;20301;-63
2020/12/07 10:44:01;;;;;;;1.60;0.60;;;23.10;49.20;;;;;;5027423;28;20209;-64
2020/12/07 10:46:27;;;;;;;0.50;0.50;;;23.50;49.30;;;;;;5024105;28;20234;-63
2020/12/07 10:48:54;;;;;;;0.50;0.50;;;23.80;48.90;;;;;;5019277;28;20211;-64
2020/12/07 10:51:20;;;;;;;0.43;0.43;;;24.10;48.50;;;;;;5016504;28;20207;-64
2020/12/07 10:53:47;;;;;;;0.70;0.70;;;24.50;48.10;;;;;;5017541;28;20229;-64
2020/12/07 10:56:15;;;;;;;0.57;0.57;;;24.80;47.80;;;;;;5021189;28;20699;-64
2020/12/07 10:58:43;;;;;;;0.57;0.57;;;25.00;47.40;;;;;;5019985;28;20202;-65
2020/12/07 11:01:10;;;;;;;0.60;0.60;;;25.30;46.70;;;;;;5018175;28;20226;-63
2020/12/07 11:03:37;;;;;;;0.60;0.60;;;25.50;46.60;;;;;;5014637;28;20317;-64
2020/12/07 11:06:12;;;;;;;0.50;0.50;;;25.70;46.00;;;;;;5022206;28;20269;-65
2020/12/07 11:08:47;;;;;;;0.50;0.50;;;25.80;45.30;;;;;;5019775;28;20197;-64
2020/12/07 11:11:13;;;;;;;0.40;0.40;;;25.60;44.40;;;;;;5016770;28;20741;-64
2020/12/07 11:13:40;;;;;;;0.50;0.50;;;25.30;43.50;;;;;;5015270;28;20917;-65
2020/12/07 11:16:12;;;;;;;0.50;0.50;;;24.80;42.80;;;;;;5017803;28;20259;-64
2020/12/07 11:18:38;;;;;;;0.43;0.43;;;24.10;41.60;;;;;;5019594;28;20214;-64
2020/12/07 11:21:10;;;;;;;0.60;0.60;;;23.40;42.20;;;;;;5018919;28;20237;-64
2020/12/07 11:23:37;;;;;;;0.30;0.30;;;22.60;41.70;;;;;;5027770;28;20209;-63
2020/12/07 11:26:06;;;;;;;0.50;0.50;;;21.90;42.40;;;;;;5026802;28;20246;-61
2020/12/07 11:28:32;;;;;;;0.50;0.50;;;21.10;42.70;;;;;;5022696;28;20699;-59
2020/12/07 11:30:59;;;;;;;0.70;0.70;;;20.40;43.20;;;;;;5018319;28;20203;-61
2020/12/07 11:33:26;;;;;;;0.60;0.60;;;19.70;43.50;;;;;;5022768;28;20609;-60
2020/12/07 11:35:52;;;;;;;0.60;0.60;;;19.00;43.60;;;;;;5023679;28;20233;-59
2020/12/07 11:38:21;;;;;;;0.70;0.70;;;18.30;44.10;;;;;;5024251;28;20321;-61
2020/12/07 11:40:58;;;;;;;0.60;0.60;;;17.70;44.80;;;;;;5023196;28;20723;-61
2020/12/07 11:43:35;;;;;;;0.80;0.80;;;17.10;45.30;;;;;;5013503;28;20561;-60
2020/12/07 11:46:01;;;;;;;0.63;0.63;;;16.60;45.80;;;;;;5019364;28;20226;-62
2020/12/07 11:48:29;;;;;;;0.80;0.80;;;16.10;46.20;;;;;;5027015;28;20238;-60
2020/12/07 11:50:55;;;;;;;0.63;0.63;;;15.70;46.50;;;;;;5021921;28;20202;-59
2020/12/07 11:53:21;;;;;;;1.10;1.00;;;15.40;46.80;;;;;;5021246;28;20214;-59
2020/12/07 11:55:48;;;;;;;0.93;0.93;;;15.00;47.10;;;;;;5020319;28;20241;-60
2020/12/07 11:58:14;;;;;;;0.80;0.80;;;14.80;47.50;;;;;;5017175;28;20218;-60
2020/12/07 12:00:41;;;;;;;1.20;1.10;;;14.50;47.80;;;;;;5014671;28;20226;-61
2020/12/07 12:03:08;;;;;;;0.93;0.93;;;14.30;48.00;;;;;;5015885;28;20219;-61
2020/12/07 12:05:35;;;;;;;0.90;0.90;;;14.20;48.20;;;;;;5018923;28;20218;-59
2020/12/07 12:08:01;;;;;;;0.80;0.80;;;14.00;48.40;;;;;;5016056;28;20217;-59
2020/12/07 12:10:28;;;;;;;0.97;0.97;;;13.90;48.60;;;;;;5021378;28;21189;-58
2020/12/07 12:12:54;;;;;;;1.13;1.03;;;13.80;48.70;;;;;;5017951;28;20210;-58
2020/12/07 12:15:20;;;;;;;0.90;0.90;;;13.70;48.90;;;;;;5016245;28;20207;-60
2020/12/07 12:17:47;;;;;;;1.30;1.20;;;13.60;49.10;;;;;;5019968;28;20937;-58
2020/12/07 12:20:14;;;;;;;1.00;1.00;;;13.50;49.20;;;;;;5015962;28;20236;-63
2020/12/07 12:22:41;;;;;;;0.80;0.80;;;13.40;49.20;;;;;;5015784;28;20217;-60
2020/12/07 12:25:07;;;;;;;1.10;1.10;;;13.30;49.10;;;;;;5015671;28;20221;-65
2020/12/07 12:27:34;;;;;;;1.20;1.10;;;13.20;49.20;;;;;;5013718;28;20230;-60
2020/12/07 12:30:00;;;;;;;1.00;1.00;;;13.10;49.10;;;;;;5019349;28;20206;-61
2020/12/07 12:32:27;;;;;;;1.33;0.90;;;13.00;49.00;;;;;;5024543;28;20210;-60
2020/12/07 12:34:53;;;;;;;1.20;1.10;;;12.90;49.00;;;;;;5021610;28;20232;-59
2020/12/07 12:37:19;;;;;;;0.93;0.93;;;12.70;49.10;;;;;;5022784;28;20222;-59
2020/12/07 12:39:46;;;;;;;1.07;1.07;;;12.60;49.20;;;;;;5021066;28;20310;-60
2020/12/07 12:42:13;;;;;;;1.00;0.90;;;12.40;49.30;;;;;;5018402;28;20202;-60
2020/12/07 12:44:39;;;;;;;1.50;1.23;;;12.30;49.40;;;;;;5021224;28;20208;-60
2020/12/07 12:47:06;;;;;;;1.20;1.10;;;12.10;49.60;;;;;;5017862;28;20241;-60
2020/12/07 12:49:32;;;;;;;0.97;0.93;;;12.00;50.40;;;;;;5022362;28;20297;-61
2020/12/07 12:51:58;;;;;;;6.03;4.67;;;11.90;49.80;;;;;;5016437;28;20667;-64
2020/12/07 12:54:25;;;;;;;2.57;2.07;;;11.80;50.00;;;;;;5019805;28;20293;-65
2020/12/07 12:56:52;;;;;;;2.47;1.57;;;11.70;50.20;;;;;;5022497;28;20236;-63
2020/12/07 12:59:18;;;;;;;1.10;1.10;;;11.60;50.20;;;;;;5028717;28;20321;-64
2020/12/07 13:01:45;;;;;;;2.97;1.10;;;11.50;50.40;;;;;;5023858;28;20237;-64
2020/12/07 13:04:11;;;;;;;1.07;1.07;;;11.40;50.50;;;;;;5025646;28;20207;-64
2020/12/07 13:06:38;;;;;;;0.97;0.97;;;11.30;50.70;;;;;;5026410;28;20226;-65
2020/12/07 13:09:04;;;;;;;0.90;0.87;;;11.30;50.90;;;;;;5025374;28;20221;-65
2020/12/07 13:11:34;;;;;;;1.00;1.00;;;11.20;51.00;;;;;;5024228;28;20206;-64
2020/12/07 13:14:02;;;;;;;0.80;0.80;;;11.20;51.20;;;;;;5025203;28;20217;-64
2020/12/07 13:16:35;;;;;;;1.10;1.10;;;11.20;51.30;;;;;;5044753;22;20707;-60
2020/12/07 13:19:02;;;;;;;1.77;1.40;;;11.20;51.50;;;;;;5025056;28;20207;-61
2020/12/07 13:21:32;;;;;;;1.20;1.10;;;11.30;51.60;;;;;;5022686;28;20230;-57